createdAt,value
2022-09-11T00:00:49.822Z,12.27
2022-09-11T00:03:16.382Z,13.35
2022-09-11T00:05:43.428Z,12.88
2022-09-11T00:08:12.022Z,13.48
2022-09-11T00:10:40.407Z,14.07
2022-09-11T00:13:07.652Z,13.02
2022-09-11T00:15:42.115Z,14.63
2022-09-11T00:18:13.223Z,16.10
2022-09-11T00:20:39.861Z,16.40
2022-09-11T00:23:06.456Z,14.38
2022-09-11T00:25:34.544Z,16.45
2022-09-11T00:28:01.521Z,16.52
2022-09-11T00:30:28.782Z,17.13
2022-09-11T00:32:55.772Z,18.45
2022-09-11T00:35:22.632Z,18.90
2022-09-11T00:37:49.085Z,20.77
2022-09-11T00:40:17.256Z,20.15
2022-09-11T00:42:43.796Z,20.35
2022-09-11T00:45:21.991Z,22.05
2022-09-11T00:47:49.301Z,22.75
2022-09-11T00:50:19.900Z,22.48
2022-09-11T00:52:56.996Z,23.75
2022-09-11T00:55:27.243Z,23.85
2022-09-11T00:57:59.047Z,24.58
2022-09-11T01:00:25.945Z,23.20
2022-09-11T01:02:53.471Z,25.02
2022-09-11T01:05:22.286Z,23.00
2022-09-11T01:07:50.316Z,24.80
2022-09-11T01:10:17.140Z,24.10
2022-09-11T01:12:52.494Z,24.55
2022-09-11T01:15:30.972Z,25.75
2022-09-11T01:18:15.000Z,25.55
2022-09-11T01:21:15.825Z,24.77
2022-09-11T01:24:13.929Z,26.27
2022-09-11T01:26:53.949Z,26.67
2022-09-11T01:29:29.763Z,26.38
2022-09-11T01:32:01.289Z,27.50
2022-09-11T01:34:44.017Z,28.20
2022-09-11T01:39:43.327Z,25.85
2022-09-11T01:42:14.726Z,28.05
2022-09-11T01:44:51.814Z,29.80
2022-09-11T01:47:19.881Z,28.60
2022-09-11T01:49:56.149Z,27.05
2022-09-11T01:52:27.984Z,28.80
2022-09-11T01:54:59.715Z,29.08
2022-09-11T01:57:37.626Z,29.30
2022-09-11T02:00:08.514Z,28.92
2022-09-11T02:02:38.586Z,28.73
2022-09-11T02:05:05.144Z,30.63
2022-09-11T02:07:36.516Z,34.63
2022-09-11T02:10:07.851Z,34.75
2022-09-11T02:12:40.866Z,36.53
2022-09-11T02:15:08.188Z,39.45
2022-09-11T02:17:43.730Z,40.88
2022-09-11T02:20:10.825Z,41.28
2022-09-11T02:22:37.443Z,42.10
2022-09-11T02:25:04.299Z,44.63
2022-09-11T02:27:33.758Z,42.95
2022-09-11T02:30:00.353Z,44.92
2022-09-11T02:32:27.063Z,45.15
2022-09-11T02:34:55.355Z,44.83
2022-09-11T02:37:41.016Z,48.88
2022-09-11T02:40:27.007Z,46.78
2022-09-11T02:43:19.427Z,46.67
2022-09-11T02:46:13.071Z,51.85
2022-09-11T02:49:06.765Z,49.80
2022-09-11T02:51:38.896Z,47.63
2022-09-11T02:54:24.493Z,47.83
2022-09-11T02:57:24.885Z,51.42
2022-09-11T03:00:01.042Z,52.00
2022-09-11T03:02:29.313Z,51.30
2022-09-11T03:04:56.671Z,52.35
2022-09-11T03:07:25.334Z,50.25
2022-09-11T03:09:52.468Z,53.05
2022-09-11T03:12:18.924Z,48.65
2022-09-11T03:14:45.418Z,52.15
2022-09-11T03:17:11.822Z,50.53
2022-09-11T03:19:38.243Z,51.88
2022-09-11T03:22:04.645Z,48.55
2022-09-11T03:24:31.134Z,49.38
2022-09-11T03:26:57.621Z,50.13
2022-09-11T03:29:24.093Z,50.92
2022-09-11T03:31:51.386Z,49.95
2022-09-11T03:34:18.001Z,50.47
2022-09-11T03:36:44.441Z,50.85
2022-09-11T03:39:10.891Z,50.00
2022-09-11T03:41:37.384Z,54.63
2022-09-11T03:44:03.937Z,51.30
2022-09-11T03:46:31.869Z,51.95
2022-09-11T03:48:59.445Z,50.05
2022-09-11T03:51:26.533Z,50.05
2022-09-11T03:53:53.389Z,48.58
2022-09-11T03:56:21.103Z,50.55
2022-09-11T03:58:48.264Z,52.75
2022-09-11T04:01:15.843Z,52.35
2022-09-11T04:03:42.573Z,52.28
2022-09-11T04:06:10.239Z,51.20
2022-09-11T04:08:37.037Z,54.25
2022-09-11T04:11:05.200Z,53.85
2022-09-11T04:13:34.571Z,53.40
2022-09-11T04:16:02.948Z,53.58
2022-09-11T04:18:30.418Z,54.08
2022-09-11T04:20:56.881Z,51.67
2022-09-11T04:23:23.398Z,53.85
2022-09-11T04:25:49.899Z,52.47
2022-09-11T04:28:16.447Z,51.60
2022-09-11T04:30:42.802Z,52.25
2022-09-11T04:33:09.317Z,50.42
2022-09-11T04:35:39.792Z,50.97
2022-09-11T04:38:07.627Z,51.45
2022-09-11T04:40:35.081Z,49.58
2022-09-11T04:43:02.248Z,46.55
2022-09-11T04:45:33.381Z,47.47
2022-09-11T04:48:00.846Z,42.30
2022-09-11T04:50:28.979Z,40.78
2022-09-11T04:52:55.437Z,39.03
2022-09-11T04:55:21.944Z,40.55
2022-09-11T04:57:48.661Z,39.78
2022-09-11T05:00:15.345Z,41.33
2022-09-11T05:02:41.785Z,40.50
2022-09-11T05:05:09.238Z,38.20
2022-09-11T05:07:36.022Z,37.70
2022-09-11T05:10:03.132Z,36.80
2022-09-11T05:12:31.825Z,36.38
2022-09-11T05:14:59.077Z,37.88
2022-09-11T05:17:25.470Z,37.60
2022-09-11T05:19:52.043Z,36.22
2022-09-11T05:22:18.486Z,38.15
2022-09-11T05:24:44.891Z,37.42
2022-09-11T05:27:11.967Z,39.78
2022-09-11T05:29:39.230Z,36.95
2022-09-11T05:32:05.962Z,34.13
2022-09-11T05:34:32.405Z,30.95
2022-09-11T05:36:58.997Z,31.20
2022-09-11T05:39:25.368Z,30.60
2022-09-11T05:41:52.402Z,31.88
2022-09-11T05:44:19.561Z,31.40
2022-09-11T05:46:46.092Z,31.13
2022-09-11T05:49:13.017Z,31.63
2022-09-11T05:51:41.576Z,30.90
2022-09-11T05:54:08.223Z,32.35
2022-09-11T05:56:34.805Z,33.00
2022-09-11T05:59:02.435Z,32.70
2022-09-11T06:01:29.115Z,31.52
2022-09-11T06:03:55.619Z,31.88
2022-09-11T06:06:23.057Z,32.08
2022-09-11T06:08:51.822Z,31.65
2022-09-11T06:11:19.377Z,30.98
2022-09-11T06:13:46.682Z,30.83
2022-09-11T06:16:18.799Z,30.67
2022-09-11T06:18:49.273Z,32.03
2022-09-11T06:21:19.989Z,31.38
2022-09-11T06:23:47.989Z,30.80
2022-09-11T06:26:16.515Z,30.75
2022-09-11T06:28:43.015Z,29.95
2022-09-11T06:31:16.316Z,30.48
2022-09-11T06:33:43.272Z,30.27
2022-09-11T06:36:12.070Z,32.58
2022-09-11T06:38:39.021Z,30.58
2022-09-11T06:41:07.687Z,29.58
2022-09-11T06:43:34.305Z,28.50
2022-09-11T06:46:05.227Z,29.30
2022-09-11T06:48:31.719Z,30.80
2022-09-11T06:51:05.487Z,29.58
2022-09-11T06:53:31.929Z,29.42
2022-09-11T06:56:09.080Z,29.33
2022-09-11T06:58:35.778Z,31.00
2022-09-11T07:01:11.529Z,30.52
2022-09-11T07:03:38.436Z,29.10
2022-09-11T07:06:06.258Z,30.55
2022-09-11T07:08:32.641Z,30.92
2022-09-11T07:11:04.704Z,30.63
2022-09-11T07:13:36.732Z,30.77
2022-09-11T07:16:06.591Z,29.83
2022-09-11T07:18:38.139Z,28.35
2022-09-11T07:21:25.018Z,30.38
2022-09-11T07:23:56.878Z,30.45
2022-09-11T07:26:26.234Z,28.98
2022-09-11T07:28:54.574Z,29.88
2022-09-11T07:31:23.490Z,28.85
2022-09-11T07:33:51.283Z,28.95
2022-09-11T07:36:20.145Z,29.10
2022-09-11T07:38:48.145Z,28.15
2022-09-11T07:41:16.747Z,27.02
2022-09-11T07:43:46.747Z,26.90
2022-09-11T07:46:13.985Z,28.13
2022-09-11T07:48:42.742Z,28.65
2022-09-11T07:51:14.022Z,26.55
2022-09-11T07:53:46.089Z,26.65
2022-09-11T07:56:18.490Z,24.85
2022-09-11T08:01:16.776Z,23.50
2022-09-11T08:03:43.858Z,23.08
2022-09-11T08:06:14.787Z,24.52
2022-09-11T08:08:43.436Z,23.75
2022-09-11T08:11:12.688Z,24.40
2022-09-11T08:13:39.308Z,26.33
2022-09-11T08:16:06.622Z,25.27
2022-09-11T08:18:35.256Z,25.40
2022-09-11T08:21:03.691Z,25.20
2022-09-11T08:23:32.096Z,25.85
2022-09-11T08:26:12.000Z,24.02
2022-09-11T08:28:39.112Z,25.02
2022-09-11T08:31:06.695Z,25.33
2022-09-11T08:33:33.578Z,24.48
2022-09-11T08:36:02.150Z,22.88
2022-09-11T08:38:29.126Z,24.20
2022-09-11T08:40:57.454Z,24.25
2022-09-11T08:43:26.951Z,23.30
2022-09-11T08:45:57.008Z,23.98
2022-09-11T08:48:29.874Z,23.25
2022-09-11T08:50:56.302Z,23.35
2022-09-11T08:53:22.867Z,21.80
2022-09-11T08:55:52.960Z,22.85
2022-09-11T08:58:36.532Z,24.08
2022-09-11T09:01:26.134Z,22.70
2022-09-11T09:04:19.869Z,22.10
2022-09-11T09:07:16.555Z,22.58
2022-09-11T09:10:21.886Z,22.63
2022-09-11T09:13:30.347Z,22.90
2022-09-11T09:16:28.140Z,24.08
2022-09-11T09:19:03.384Z,25.15
2022-09-11T09:21:35.357Z,24.67
2022-09-11T09:24:04.241Z,22.58
2022-09-11T09:26:38.637Z,23.42
2022-09-11T09:29:14.410Z,23.42
2022-09-11T09:31:42.139Z,23.63
2022-09-11T09:34:19.789Z,23.20
2022-09-11T09:36:57.563Z,20.05
2022-09-11T09:39:24.339Z,21.25
2022-09-11T09:42:16.442Z,21.60
2022-09-11T09:44:51.849Z,21.40
2022-09-11T09:47:18.329Z,21.63
2022-09-11T09:49:45.320Z,22.45
2022-09-11T09:52:24.399Z,21.48
2022-09-11T09:55:02.359Z,20.75
2022-09-11T09:57:37.099Z,21.20
2022-09-11T10:00:21.685Z,20.98
2022-09-11T10:02:53.992Z,21.75
2022-09-11T10:05:26.286Z,21.05
2022-09-11T10:07:58.722Z,20.60
2022-09-11T10:13:18.565Z,20.15
2022-09-11T10:15:48.288Z,19.73
2022-09-11T10:18:33.361Z,20.83
2022-09-11T10:21:12.230Z,20.23
2022-09-11T10:24:01.188Z,19.63
2022-09-11T10:26:38.662Z,19.20
2022-09-11T10:29:17.240Z,16.77
2022-09-11T10:31:51.409Z,16.85
2022-09-11T10:34:20.119Z,19.15
2022-09-11T10:36:56.288Z,19.70
2022-09-11T10:39:25.100Z,17.92
2022-09-11T10:41:54.483Z,16.02
2022-09-11T10:44:22.113Z,16.10
2022-09-11T10:47:26.595Z,14.73
2022-09-11T10:50:20.347Z,16.88
2022-09-11T10:52:58.358Z,15.18
2022-09-11T10:55:35.427Z,13.48
2022-09-11T10:58:14.159Z,14.88
2022-09-11T11:00:40.594Z,14.45
2022-09-11T11:03:23.111Z,12.80
2022-09-11T11:06:27.407Z,13.75
2022-09-11T11:09:00.078Z,14.13
2022-09-11T11:11:38.060Z,13.43
2022-09-11T11:14:11.418Z,14.30
2022-09-11T11:17:05.815Z,15.23
2022-09-11T11:19:45.734Z,16.92
2022-09-11T11:22:20.196Z,14.30
2022-09-11T11:25:17.855Z,14.85
2022-09-11T11:28:06.898Z,14.45
2022-09-11T11:30:55.508Z,15.15
2022-09-11T11:33:46.977Z,15.93
2022-09-11T11:36:27.594Z,15.07
2022-09-11T11:39:00.520Z,15.50
2022-09-11T11:41:30.782Z,14.65
2022-09-11T11:43:58.920Z,14.10
2022-09-11T11:46:30.284Z,13.90
2022-09-11T11:49:00.265Z,14.27
2022-09-11T11:51:28.120Z,13.15
2022-09-11T11:54:00.075Z,14.10
2022-09-11T11:56:45.083Z,14.75
2022-09-11T11:59:18.975Z,14.07
2022-09-11T12:01:50.673Z,13.52
2022-09-11T12:04:42.187Z,14.57
2022-09-11T12:07:30.399Z,14.35
2022-09-11T12:09:58.885Z,13.02
2022-09-11T12:12:28.390Z,12.02
2022-09-11T12:14:57.192Z,10.68
2022-09-11T12:17:31.603Z,12.55
2022-09-11T12:20:13.297Z,11.27
2022-09-11T12:22:48.712Z,10.83
2022-09-11T12:25:21.298Z,9.77
2022-09-11T12:27:48.751Z,9.50
2022-09-11T12:30:18.190Z,9.60
2022-09-11T12:33:02.887Z,9.23
2022-09-11T12:35:31.428Z,10.18
2022-09-11T12:38:06.716Z,8.18
2022-09-11T12:40:53.230Z,7.47
2022-09-11T12:43:28.674Z,7.38
2022-09-11T12:45:56.991Z,7.35
2022-09-11T12:48:33.344Z,6.70
2022-09-11T12:51:00.837Z,6.45
2022-09-11T12:53:31.125Z,6.72
2022-09-11T12:56:02.727Z,6.75
2022-09-11T12:58:37.281Z,5.93
2022-09-11T13:01:26.105Z,5.95
2022-09-11T13:04:01.966Z,4.95
2022-09-11T13:06:56.177Z,5.50
2022-09-11T13:09:25.392Z,4.95
2022-09-11T13:11:53.820Z,4.43
2022-09-11T13:14:29.351Z,4.55
2022-09-11T13:16:57.187Z,4.30
2022-09-11T13:19:24.425Z,3.75
2022-09-11T13:21:52.083Z,4.05
2022-09-11T13:24:30.311Z,4.10
2022-09-11T13:27:24.550Z,4.03
2022-09-11T13:29:51.715Z,4.50
2022-09-11T13:32:18.438Z,4.68
2022-09-11T13:34:47.127Z,4.50
2022-09-11T13:37:30.995Z,4.45
2022-09-11T13:39:57.776Z,3.67
2022-09-11T13:42:25.687Z,4.80
2022-09-11T13:44:53.165Z,4.82
2022-09-11T13:47:21.851Z,4.28
2022-09-11T13:49:50.034Z,4.78
2022-09-11T13:52:16.558Z,4.15
2022-09-11T13:54:46.673Z,3.97
2022-09-11T13:57:21.076Z,3.85
2022-09-11T13:59:51.850Z,3.50
2022-09-11T14:02:34.668Z,3.20
2022-09-11T14:05:10.465Z,4.63
2022-09-11T14:07:47.595Z,3.92
2022-09-11T14:10:27.379Z,4.05
2022-09-11T14:13:19.113Z,4.50
2022-09-11T14:16:08.498Z,4.30
2022-09-11T14:18:41.089Z,4.38
2022-09-11T14:21:23.234Z,4.50
2022-09-11T14:23:54.404Z,4.35
2022-09-11T14:26:27.081Z,3.85
2022-09-11T14:28:58.108Z,3.90
2022-09-11T14:31:46.886Z,4.50
2022-09-11T14:34:16.185Z,3.05
2022-09-11T14:36:45.982Z,3.40
2022-09-11T14:39:31.002Z,3.20
2022-09-11T14:41:57.999Z,3.72
2022-09-11T14:44:26.243Z,3.22
2022-09-11T14:46:53.431Z,3.72
2022-09-11T14:49:19.861Z,3.40
2022-09-11T14:51:52.513Z,3.20
2022-09-11T14:54:20.567Z,3.33
2022-09-11T14:56:47.823Z,3.75
2022-09-11T14:59:14.314Z,3.78
2022-09-11T15:01:40.799Z,3.28
2022-09-11T15:04:10.993Z,3.28
2022-09-11T15:06:37.425Z,3.80
2022-09-11T15:09:03.850Z,3.08
2022-09-11T15:11:37.403Z,3.33
2022-09-11T15:14:32.280Z,3.42
2022-09-11T15:16:58.060Z,3.50
2022-09-11T15:19:24.618Z,3.42
2022-09-11T15:21:51.144Z,3.50
2022-09-11T15:24:17.825Z,3.20
2022-09-11T15:26:44.210Z,3.30
2022-09-11T15:29:11.086Z,3.35
2022-09-11T15:31:38.096Z,3.20
2022-09-11T15:34:07.217Z,2.90
2022-09-11T15:36:34.231Z,3.78
2022-09-11T15:39:00.692Z,3.33
2022-09-11T15:41:28.018Z,2.97
2022-09-11T15:43:54.436Z,2.83
2022-09-11T15:46:22.589Z,2.92
2022-09-11T15:48:49.840Z,2.85
2022-09-11T15:51:21.928Z,2.83
2022-09-11T15:53:48.404Z,2.88
2022-09-11T15:56:18.254Z,3.05
2022-09-11T15:58:47.609Z,3.00
2022-09-11T16:01:18.272Z,2.90
2022-09-11T16:03:45.044Z,3.20
2022-09-11T16:06:11.529Z,3.03
2022-09-11T16:08:39.717Z,2.90
2022-09-11T16:11:06.209Z,2.80
2022-09-11T16:13:32.727Z,3.35
2022-09-11T16:16:04.328Z,3.25
2022-09-11T16:18:31.222Z,3.20
2022-09-11T16:20:58.539Z,3.20
2022-09-11T16:23:26.294Z,3.38
2022-09-11T16:25:52.932Z,3.50
2022-09-11T16:28:19.553Z,3.22
2022-09-11T16:30:50.658Z,3.13
2022-09-11T16:33:17.608Z,3.30
2022-09-11T16:35:45.181Z,3.28
2022-09-11T16:38:11.597Z,3.13
2022-09-11T16:40:38.105Z,3.90
2022-09-11T16:43:07.702Z,3.78
2022-09-11T16:45:34.703Z,3.67
2022-09-11T16:48:02.460Z,3.50
2022-09-11T16:50:29.080Z,3.13
2022-09-11T16:52:55.563Z,3.17
2022-09-11T16:55:22.196Z,3.45
2022-09-11T16:57:49.194Z,4.18
2022-09-11T17:00:15.648Z,3.75
2022-09-11T17:02:42.057Z,4.30
2022-09-11T17:05:09.166Z,3.65
2022-09-11T17:07:35.879Z,4.18
2022-09-11T17:10:03.199Z,3.80
2022-09-11T17:12:29.611Z,3.40
2022-09-11T17:14:56.061Z,3.60
2022-09-11T17:17:23.269Z,3.92
2022-09-11T17:19:51.000Z,4.10
2022-09-11T17:22:17.611Z,4.10
2022-09-11T17:24:44.497Z,3.92
2022-09-11T17:27:10.895Z,3.90
2022-09-11T17:29:41.192Z,4.03
2022-09-11T17:32:27.291Z,4.97
2022-09-11T17:34:54.766Z,4.97
2022-09-11T17:37:21.216Z,6.30
2022-09-11T17:39:47.663Z,6.63
2022-09-11T17:42:14.062Z,7.53
2022-09-11T17:44:41.357Z,7.35
2022-09-11T17:47:07.933Z,7.60
2022-09-11T17:49:34.443Z,6.85
2022-09-11T17:52:00.803Z,6.53
2022-09-11T17:54:28.045Z,6.45
2022-09-11T17:56:55.486Z,7.35
2022-09-11T17:59:22.610Z,7.78
2022-09-11T18:01:49.561Z,6.97
2022-09-11T18:04:17.617Z,7.50
2022-09-11T18:06:44.396Z,6.38
2022-09-11T18:09:16.055Z,6.78
2022-09-11T18:11:44.054Z,6.22
2022-09-11T18:14:11.425Z,6.88
2022-09-11T18:16:38.254Z,6.55
2022-09-11T18:19:05.032Z,7.63
2022-09-11T18:21:38.234Z,6.60
2022-09-11T18:24:09.852Z,6.85
2022-09-11T18:26:40.014Z,6.30
2022-09-11T18:29:11.365Z,6.55
2022-09-11T18:31:40.237Z,6.47
2022-09-11T18:34:07.223Z,6.78
2022-09-11T18:36:33.643Z,6.00
2022-09-11T18:39:01.839Z,6.18
2022-09-11T18:41:30.066Z,6.15
2022-09-11T18:43:57.601Z,5.90
2022-09-11T18:46:24.858Z,6.18
2022-09-11T18:48:51.486Z,6.65
2022-09-11T18:51:19.756Z,6.43
2022-09-11T18:53:51.874Z,6.15
2022-09-11T18:56:19.739Z,5.80
2022-09-11T18:58:48.418Z,6.75
2022-09-11T19:01:20.130Z,7.07
2022-09-11T19:03:47.198Z,6.13
2022-09-11T19:06:15.357Z,6.68
2022-09-11T19:08:43.306Z,5.97
2022-09-11T19:11:16.466Z,6.82
2022-09-11T19:13:45.840Z,7.25
2022-09-11T19:16:12.964Z,7.07
2022-09-11T19:18:39.492Z,6.78
2022-09-11T19:21:10.205Z,8.07
2022-09-11T19:23:39.773Z,7.90
2022-09-11T19:26:14.191Z,8.40
2022-09-11T19:28:42.066Z,8.13
2022-09-11T19:31:10.273Z,8.40
2022-09-11T19:33:38.265Z,7.97
2022-09-11T19:36:09.948Z,9.00
2022-09-11T19:38:40.164Z,8.93
2022-09-11T19:41:08.553Z,9.02
2022-09-11T19:43:36.299Z,9.07
2022-09-11T19:46:07.241Z,9.57
2022-09-11T19:48:34.280Z,10.40
2022-09-11T19:51:03.433Z,10.25
2022-09-11T19:53:30.312Z,10.25
2022-09-11T19:55:57.903Z,9.55
2022-09-11T19:58:24.885Z,9.52
2022-09-11T20:00:51.708Z,10.70
2022-09-11T20:03:18.612Z,9.30
2022-09-11T20:05:45.776Z,9.80
2022-09-11T20:08:16.209Z,10.38
2022-09-11T20:10:45.379Z,9.45
2022-09-11T20:13:11.777Z,10.13
2022-09-11T20:15:39.168Z,9.80
2022-09-11T20:18:07.379Z,10.10
2022-09-11T20:20:34.781Z,10.50
2022-09-11T20:23:01.187Z,9.95
2022-09-11T20:25:27.941Z,9.45
2022-09-11T20:27:54.407Z,9.68
2022-09-11T20:30:22.838Z,9.30
2022-09-11T20:32:49.224Z,9.48
2022-09-11T20:35:15.629Z,8.77
2022-09-11T20:37:42.092Z,10.27
2022-09-11T20:40:09.317Z,8.98
2022-09-11T20:42:35.820Z,9.35
2022-09-11T20:45:02.190Z,9.80
2022-09-11T20:47:28.988Z,10.65
2022-09-11T20:49:55.352Z,10.00
2022-09-11T20:52:22.837Z,10.95
2022-09-11T20:54:49.322Z,9.68
2022-09-11T20:57:15.727Z,10.02
2022-09-11T20:59:43.345Z,10.88
2022-09-11T21:02:10.938Z,11.68
2022-09-11T21:04:37.788Z,11.77
2022-09-11T21:07:04.207Z,10.48
2022-09-11T21:09:31.084Z,11.40
2022-09-11T21:11:57.521Z,12.10
2022-09-11T21:14:24.009Z,12.10
2022-09-11T21:16:52.379Z,12.52
2022-09-11T21:19:18.788Z,12.38
2022-09-11T21:21:45.199Z,11.73
2022-09-11T21:24:13.167Z,12.45
2022-09-11T21:26:39.750Z,12.60
2022-09-11T21:29:08.164Z,13.60
2022-09-11T21:31:35.324Z,13.10
2022-09-11T21:34:02.093Z,12.63
2022-09-11T21:36:28.671Z,12.90
2022-09-11T21:38:55.089Z,13.48
2022-09-11T21:41:21.450Z,13.15
2022-09-11T21:43:47.854Z,13.23
2022-09-11T21:46:14.326Z,13.18
2022-09-11T21:48:41.441Z,13.70
2022-09-11T21:51:13.034Z,12.65
2022-09-11T21:53:41.075Z,12.87
2022-09-11T21:56:16.200Z,11.80
2022-09-11T21:58:42.618Z,12.50
2022-09-11T22:01:09.050Z,13.25
2022-09-11T22:03:35.589Z,14.13
2022-09-11T22:06:06.018Z,13.00
2022-09-11T22:08:32.785Z,12.80
2022-09-11T22:11:02.666Z,12.45
2022-09-11T22:13:29.129Z,12.70
2022-09-11T22:15:55.560Z,11.88
2022-09-11T22:18:22.018Z,12.15
2022-09-11T22:20:48.396Z,12.65
2022-09-11T22:23:17.119Z,12.60
2022-09-11T22:25:45.018Z,13.15
2022-09-11T22:28:11.402Z,12.88
2022-09-11T22:30:41.854Z,12.23
2022-09-11T22:33:08.891Z,11.90
2022-09-11T22:35:35.546Z,11.75
2022-09-11T22:38:02.023Z,12.00
2022-09-11T22:40:28.407Z,11.75
2022-09-11T22:42:54.778Z,12.77
2022-09-11T22:45:21.169Z,12.63
2022-09-11T22:47:47.544Z,12.75
2022-09-11T22:50:13.978Z,12.45
2022-09-11T22:52:40.910Z,13.27
2022-09-11T22:55:07.846Z,13.20
2022-09-11T22:57:35.606Z,14.45
2022-09-11T23:00:04.514Z,13.20
2022-09-11T23:02:30.900Z,14.10
2022-09-11T23:05:15.823Z,14.10
2022-09-11T23:07:42.212Z,14.57
2022-09-11T23:10:09.938Z,15.57
2022-09-11T23:12:37.330Z,15.77
2022-09-11T23:15:04.384Z,14.57
2022-09-11T23:17:30.902Z,16.33
2022-09-11T23:19:57.339Z,15.30
2022-09-11T23:22:23.742Z,14.68
2022-09-11T23:24:50.196Z,15.73
2022-09-11T23:27:16.558Z,15.50
2022-09-11T23:29:42.988Z,15.60
2022-09-11T23:32:09.408Z,15.30
2022-09-11T23:34:35.816Z,15.40
2022-09-11T23:37:02.228Z,15.73
2022-09-11T23:39:28.736Z,15.98
2022-09-11T23:41:55.168Z,15.75
2022-09-11T23:44:21.603Z,15.30
2022-09-11T23:46:48.010Z,15.10
2022-09-11T23:49:15.949Z,17.05
2022-09-11T23:51:42.540Z,16.27
2022-09-11T23:54:08.952Z,16.50
2022-09-11T23:56:35.367Z,17.25
2022-09-11T23:59:01.743Z,17.15
